createdAt,value
2023-01-08T07:51:25.049Z,14.73
2023-01-08T07:53:52.510Z,17.70
2023-01-08T07:56:19.893Z,15.07
2023-01-08T07:58:47.311Z,14.97
2023-01-08T08:01:14.852Z,13.63
2023-01-08T08:03:42.706Z,14.63
2023-01-08T08:06:10.188Z,14.70
2023-01-08T08:08:37.558Z,14.03
2023-01-08T08:11:05.072Z,14.30
2023-01-08T08:13:32.489Z,14.20
2023-01-08T08:16:03.788Z,14.40
2023-01-08T08:18:31.305Z,14.43
2023-01-08T08:20:58.691Z,14.33
2023-01-08T08:23:26.065Z,13.93
2023-01-08T08:25:54.767Z,14.20
2023-01-08T08:28:22.196Z,14.80
2023-01-08T08:30:49.477Z,13.60
2023-01-08T08:33:17.000Z,14.37
2023-01-08T08:35:49.506Z,14.73
2023-01-08T08:38:16.999Z,14.87
2023-01-08T08:40:44.442Z,15.17
2023-01-08T08:43:11.971Z,14.23
2023-01-08T08:45:39.333Z,15.03
2023-01-08T08:48:07.331Z,14.97
2023-01-08T08:50:35.211Z,15.07
2023-01-08T08:53:03.723Z,15.47
2023-01-08T08:55:33.346Z,15.40
2023-01-08T08:58:08.258Z,15.73
2023-01-08T09:00:35.617Z,15.13
2023-01-08T09:03:02.989Z,15.20
2023-01-08T09:05:30.417Z,14.63
2023-01-08T09:07:57.794Z,15.33
2023-01-08T09:10:25.219Z,15.27
2023-01-08T09:12:54.000Z,15.07
2023-01-08T09:15:21.660Z,15.37
2023-01-08T09:17:58.499Z,14.97
2023-01-08T09:20:26.675Z,15.73
2023-01-08T09:22:54.489Z,15.17
2023-01-08T09:25:21.839Z,15.77
2023-01-08T09:27:49.148Z,16.27
2023-01-08T09:30:16.596Z,15.47
2023-01-08T09:32:43.923Z,15.57
2023-01-08T09:35:11.317Z,15.60
2023-01-08T09:37:38.604Z,15.83
2023-01-08T09:40:06.174Z,15.33
2023-01-08T09:42:34.313Z,15.60
2023-01-08T09:45:02.648Z,15.60
2023-01-08T09:47:31.998Z,15.87
2023-01-08T09:50:01.547Z,15.83
2023-01-08T09:52:28.867Z,15.83
2023-01-08T09:54:56.481Z,15.47
2023-01-08T09:57:24.017Z,14.83
2023-01-08T09:59:51.451Z,15.37
2023-01-08T10:02:20.402Z,16.53
2023-01-08T10:04:49.619Z,15.97
2023-01-08T10:07:24.591Z,16.33
2023-01-08T10:09:52.295Z,15.83
2023-01-08T10:12:37.878Z,15.67
2023-01-08T10:15:07.290Z,15.80
2023-01-08T10:17:49.003Z,16.27
2023-01-08T10:20:16.375Z,16.10
2023-01-08T10:22:44.645Z,15.97
2023-01-08T10:25:13.642Z,16.20
2023-01-08T10:27:48.664Z,16.40
2023-01-08T10:30:17.331Z,16.17
2023-01-08T10:32:54.272Z,17.47
2023-01-08T10:35:22.991Z,16.40
2023-01-08T10:37:50.593Z,16.10
2023-01-08T10:40:43.909Z,16.50
2023-01-08T10:43:16.739Z,17.33
2023-01-08T10:45:46.526Z,17.83
2023-01-08T10:48:17.986Z,19.30
2023-01-08T10:50:45.279Z,19.53
2023-01-08T10:53:23.962Z,18.57
2023-01-08T10:56:04.893Z,19.53
2023-01-08T10:58:41.866Z,20.37
2023-01-08T11:01:10.693Z,19.23
2023-01-08T11:03:38.781Z,21.13
2023-01-08T11:06:13.537Z,20.33
2023-01-08T11:08:41.303Z,20.83
2023-01-08T11:11:09.335Z,21.27
2023-01-08T11:13:36.773Z,21.13
2023-01-08T11:16:04.592Z,21.63
2023-01-08T11:18:32.347Z,21.60
2023-01-08T11:21:08.124Z,20.73
2023-01-08T11:23:35.562Z,20.73
2023-01-08T11:26:02.898Z,20.03
2023-01-08T11:28:32.704Z,21.00
2023-01-08T11:31:11.639Z,20.30
2023-01-08T11:33:40.942Z,20.43
2023-01-08T11:36:14.904Z,20.50
2023-01-08T11:38:42.512Z,19.97
2023-01-08T11:41:15.737Z,19.90
2023-01-08T11:44:26.839Z,20.73
2023-01-08T11:47:03.114Z,21.37
2023-01-08T11:49:37.876Z,20.60
2023-01-08T11:52:10.654Z,20.23
2023-01-08T11:54:49.693Z,20.43
2023-01-08T11:57:17.173Z,20.43
2023-01-08T11:59:44.441Z,21.00
2023-01-08T12:02:30.462Z,21.23
2023-01-08T12:05:00.737Z,21.23
2023-01-08T12:07:28.050Z,21.83
2023-01-08T12:10:01.979Z,21.33
2023-01-08T12:12:47.628Z,21.30
2023-01-08T12:15:14.929Z,20.17
2023-01-08T12:17:53.248Z,21.57
2023-01-08T12:20:31.043Z,21.27
2023-01-08T12:23:06.223Z,19.97
2023-01-08T12:25:49.299Z,20.33
2023-01-08T12:28:28.611Z,20.13
2023-01-08T12:31:14.918Z,24.02
2023-01-08T12:34:17.630Z,21.00
2023-01-08T12:36:47.734Z,20.77
2023-01-08T12:39:28.999Z,20.20
2023-01-08T12:41:59.653Z,20.63
2023-01-08T12:44:29.258Z,19.93
2023-01-08T12:46:58.532Z,20.03
2023-01-08T12:49:29.570Z,20.33
2023-01-08T12:52:12.916Z,20.67
2023-01-08T12:54:40.230Z,20.57
2023-01-08T12:57:26.601Z,20.50
2023-01-08T12:59:53.926Z,20.83
2023-01-08T13:02:24.743Z,20.33
2023-01-08T13:04:52.291Z,21.13
2023-01-08T13:07:21.859Z,21.07
2023-01-08T13:10:01.232Z,21.40
2023-01-08T13:12:36.260Z,21.90
2023-01-08T13:15:04.149Z,22.13
2023-01-08T13:17:31.695Z,22.77
2023-01-08T13:20:03.482Z,22.87
2023-01-08T13:22:32.740Z,22.23
2023-01-08T13:25:18.411Z,24.27
2023-01-08T13:27:46.758Z,24.70
2023-01-08T13:30:32.907Z,23.30
2023-01-08T13:33:00.548Z,25.10
2023-01-08T13:35:29.620Z,24.33
2023-01-08T13:38:12.679Z,24.47
2023-01-08T13:40:53.167Z,24.73
2023-01-08T13:43:31.255Z,24.93
2023-01-08T13:45:58.622Z,24.30
2023-01-08T13:48:27.325Z,23.63
2023-01-08T13:50:54.784Z,24.70
2023-01-08T13:53:22.647Z,23.77
2023-01-08T13:56:00.844Z,23.73
2023-01-08T13:58:34.243Z,24.77
2023-01-08T14:01:02.524Z,23.60
2023-01-08T14:03:35.704Z,23.93
2023-01-08T14:06:07.250Z,24.03
2023-01-08T14:08:34.912Z,23.67
2023-01-08T14:11:03.845Z,23.70
2023-01-08T14:13:34.197Z,23.80
2023-01-08T14:16:03.502Z,23.33
2023-01-08T14:18:30.917Z,25.40
2023-01-08T14:20:58.370Z,24.33
2023-01-08T14:23:29.624Z,24.63
2023-01-08T14:25:58.204Z,23.03
2023-01-08T14:28:25.455Z,24.73
2023-01-08T14:30:54.576Z,23.60
2023-01-08T14:33:24.773Z,25.67
2023-01-08T14:35:52.674Z,24.20
2023-01-08T14:38:20.002Z,25.07
2023-01-08T14:41:07.966Z,25.20
2023-01-08T14:43:39.708Z,24.87
2023-01-08T14:46:15.591Z,24.00
2023-01-08T14:48:44.618Z,24.43
2023-01-08T14:51:14.175Z,24.30
2023-01-08T14:53:56.918Z,24.00
2023-01-08T14:56:26.888Z,23.90
2023-01-08T14:58:55.490Z,24.23
2023-01-08T15:01:24.075Z,24.03
2023-01-08T15:03:52.066Z,23.83
2023-01-08T15:06:26.508Z,24.43
2023-01-08T15:08:54.025Z,25.17
2023-01-08T15:11:32.277Z,25.23
2023-01-08T15:13:59.827Z,24.60
2023-01-08T15:16:39.651Z,24.33
2023-01-08T15:19:08.122Z,25.37
2023-01-08T15:21:35.853Z,25.80
2023-01-08T15:24:04.832Z,25.03
2023-01-08T15:26:32.340Z,23.60
2023-01-08T15:28:59.627Z,24.10
2023-01-08T15:31:26.974Z,24.30
2023-01-08T15:33:54.467Z,25.23
2023-01-08T15:36:21.916Z,25.73
2023-01-08T15:38:49.863Z,24.27
2023-01-08T15:41:39.950Z,24.57
2023-01-08T15:44:07.580Z,24.80
2023-01-08T15:46:35.069Z,24.67
2023-01-08T15:49:02.313Z,24.53
2023-01-08T15:51:32.228Z,26.07
2023-01-08T15:53:59.900Z,25.20
2023-01-08T15:56:27.314Z,25.67
2023-01-08T15:58:54.664Z,25.30
2023-01-08T16:01:22.156Z,26.03
2023-01-08T16:03:50.099Z,25.17
2023-01-08T16:06:17.507Z,25.13
2023-01-08T16:08:46.251Z,26.37
2023-01-08T16:11:22.648Z,25.80
2023-01-08T16:13:49.987Z,25.33
2023-01-08T16:16:17.829Z,24.60
2023-01-08T16:18:45.123Z,24.70
2023-01-08T16:21:12.451Z,26.53
2023-01-08T16:23:40.624Z,25.73
2023-01-08T16:26:08.846Z,26.37
2023-01-08T16:28:36.338Z,27.23
2023-01-08T16:31:03.781Z,26.47
2023-01-08T16:33:31.210Z,27.30
2023-01-08T16:35:59.565Z,26.17
2023-01-08T16:38:27.013Z,25.30
2023-01-08T16:40:56.783Z,26.47
2023-01-08T16:43:28.240Z,27.17
2023-01-08T16:45:55.661Z,27.10
2023-01-08T16:48:23.779Z,27.93
2023-01-08T16:50:51.149Z,26.50
2023-01-08T16:53:18.969Z,27.17
2023-01-08T16:55:46.304Z,26.97
2023-01-08T16:58:13.633Z,25.93
2023-01-08T17:00:41.083Z,26.07
2023-01-08T17:03:08.441Z,26.60
2023-01-08T17:05:37.300Z,26.67
2023-01-08T17:08:04.806Z,26.00
2023-01-08T17:10:32.621Z,25.23
2023-01-08T17:12:59.971Z,24.93
2023-01-08T17:15:27.379Z,25.60
2023-01-08T17:17:55.352Z,25.73
2023-01-08T17:20:22.863Z,27.37
2023-01-08T17:22:50.182Z,28.77
2023-01-08T17:25:17.561Z,26.57
2023-01-08T17:27:44.938Z,26.63
2023-01-08T17:30:13.864Z,27.17
2023-01-08T17:32:41.313Z,26.97
2023-01-08T17:35:09.006Z,24.93
2023-01-08T17:37:36.482Z,26.43
2023-01-08T17:40:04.214Z,26.43
2023-01-08T17:42:31.986Z,26.97
2023-01-08T17:45:03.009Z,27.00
2023-01-08T17:47:31.716Z,26.70
2023-01-08T17:49:59.189Z,27.03
2023-01-08T17:52:26.565Z,27.17
2023-01-08T17:54:54.054Z,27.77
2023-01-08T17:57:21.897Z,26.93
2023-01-08T17:59:49.605Z,28.00
2023-01-08T18:02:17.795Z,25.87
2023-01-08T18:04:45.749Z,27.43
2023-01-08T18:07:13.490Z,27.43
2023-01-08T18:09:41.022Z,26.83
2023-01-08T18:12:08.657Z,25.90
2023-01-08T18:14:37.713Z,26.13
2023-01-08T18:17:05.645Z,26.50
2023-01-08T18:19:32.961Z,26.17
2023-01-08T18:22:00.854Z,25.73
2023-01-08T18:24:28.235Z,26.40
2023-01-08T18:26:55.603Z,26.90
2023-01-08T18:29:22.983Z,26.40
2023-01-08T18:31:50.310Z,26.07
2023-01-08T18:34:17.679Z,26.93
2023-01-08T18:36:45.049Z,26.57
2023-01-08T18:39:12.926Z,26.90
2023-01-08T18:41:58.966Z,25.60
2023-01-08T18:44:26.337Z,26.37
2023-01-08T18:46:54.499Z,25.70
2023-01-08T18:49:23.505Z,26.73
2023-01-08T18:51:51.074Z,26.03
2023-01-08T18:54:18.388Z,26.63
2023-01-08T18:56:46.573Z,27.57
2023-01-08T18:59:13.924Z,26.80
2023-01-08T19:01:41.637Z,26.80
2023-01-08T19:04:12.298Z,26.03
2023-01-08T19:06:39.601Z,26.60
2023-01-08T19:09:06.941Z,27.53
2023-01-08T19:11:34.232Z,27.13
2023-01-08T19:14:01.572Z,26.87
2023-01-08T19:16:28.914Z,27.17
2023-01-08T19:18:57.564Z,28.23
2023-01-08T19:21:24.923Z,27.73
2023-01-08T19:23:53.533Z,27.67
2023-01-08T19:26:20.953Z,27.57
2023-01-08T19:28:48.360Z,28.13
2023-01-08T19:31:17.172Z,28.10
2023-01-08T19:33:46.163Z,28.57
2023-01-08T19:36:16.021Z,28.53
2023-01-08T19:38:44.029Z,27.23
2023-01-08T19:41:30.190Z,28.63
2023-01-08T19:43:57.892Z,28.43
2023-01-08T19:46:25.599Z,28.43
2023-01-08T19:48:53.183Z,28.03
2023-01-08T19:51:20.675Z,28.93
2023-01-08T19:53:48.008Z,28.80
2023-01-08T19:56:15.496Z,28.00
2023-01-08T19:58:43.089Z,28.87
2023-01-08T20:01:10.743Z,29.03
2023-01-08T20:03:38.545Z,28.87
2023-01-08T20:06:07.117Z,30.27
2023-01-08T20:08:34.004Z,29.43
2023-01-08T20:11:08.490Z,28.90
2023-01-08T20:13:36.716Z,29.47
2023-01-08T20:16:08.319Z,29.20
2023-01-08T20:18:36.275Z,29.40
2023-01-08T20:21:11.201Z,28.70
2023-01-08T20:23:38.888Z,30.43
2023-01-08T20:26:07.554Z,30.40
2023-01-08T20:28:35.536Z,30.10
2023-01-08T20:31:06.820Z,31.50
2023-01-08T20:33:35.412Z,31.30
2023-01-08T20:36:07.019Z,32.70
2023-01-08T20:38:34.485Z,32.97
2023-01-08T20:41:01.836Z,31.87
2023-01-08T20:43:29.443Z,31.57
2023-01-08T20:45:56.806Z,31.63
2023-01-08T20:48:24.280Z,31.20
2023-01-08T20:50:55.598Z,31.77
2023-01-08T20:53:23.595Z,30.90
2023-01-08T20:55:51.521Z,30.83
2023-01-08T20:58:19.212Z,31.37
2023-01-08T21:00:46.507Z,31.57
2023-01-08T21:03:14.148Z,31.87
2023-01-08T21:05:41.481Z,32.20
2023-01-08T21:08:09.056Z,32.13
2023-01-08T21:10:36.537Z,33.00
2023-01-08T21:13:03.885Z,31.73
2023-01-08T21:15:31.385Z,32.47
2023-01-08T21:17:58.807Z,33.03
2023-01-08T21:20:26.154Z,33.97
2023-01-08T21:22:53.545Z,34.50
2023-01-08T21:25:20.842Z,33.00
2023-01-08T21:27:48.338Z,34.13
2023-01-08T21:30:15.740Z,34.50
2023-01-08T21:32:43.055Z,33.63
2023-01-08T21:35:10.359Z,33.10
2023-01-08T21:37:37.697Z,33.03
2023-01-08T21:40:05.813Z,34.27
2023-01-08T21:42:51.597Z,31.63
2023-01-08T21:45:24.819Z,31.63
2023-01-08T21:47:52.807Z,33.47
2023-01-08T21:50:20.245Z,33.13
2023-01-08T21:53:06.195Z,32.67
2023-01-08T21:55:36.083Z,33.33
2023-01-08T21:58:21.916Z,33.10
2023-01-08T22:00:49.304Z,31.67
2023-01-08T22:03:16.695Z,33.40
2023-01-08T22:05:44.035Z,33.20
2023-01-08T22:08:18.360Z,33.23
2023-01-08T22:10:45.751Z,32.17
2023-01-08T22:13:13.087Z,33.70
2023-01-08T22:15:40.442Z,32.63
2023-01-08T22:18:07.737Z,33.40
2023-01-08T22:20:35.021Z,32.40
2023-01-08T22:23:02.392Z,33.80
2023-01-08T22:25:29.988Z,33.30
2023-01-08T22:27:57.301Z,33.23
2023-01-08T22:30:24.660Z,33.57
2023-01-08T22:32:51.923Z,32.43
2023-01-08T22:35:19.284Z,33.10
2023-01-08T22:37:47.222Z,31.53
2023-01-08T22:40:14.641Z,33.00
2023-01-08T22:42:41.986Z,32.73
2023-01-08T22:45:09.589Z,33.20
2023-01-08T22:47:36.874Z,31.90
2023-01-08T22:50:04.457Z,33.53
2023-01-08T22:52:31.779Z,33.33
2023-01-08T22:54:59.453Z,32.50
2023-01-08T22:57:29.294Z,33.27
2023-01-08T22:59:56.634Z,32.47
2023-01-08T23:02:26.801Z,34.03
2023-01-08T23:04:54.663Z,34.33
2023-01-08T23:07:21.948Z,33.97
2023-01-08T23:09:49.305Z,34.90
2023-01-08T23:12:16.572Z,34.83
2023-01-08T23:14:43.850Z,33.80
2023-01-08T23:17:11.169Z,35.73
2023-01-08T23:19:38.506Z,36.10
2023-01-08T23:22:05.877Z,34.80
2023-01-08T23:24:33.206Z,35.53
2023-01-08T23:27:00.578Z,34.23
2023-01-08T23:29:29.638Z,35.33
2023-01-08T23:31:57.814Z,35.60
2023-01-08T23:34:25.760Z,34.80
2023-01-08T23:36:53.178Z,35.10
2023-01-08T23:39:21.358Z,35.60
2023-01-08T23:41:48.643Z,34.23
2023-01-08T23:44:16.849Z,34.30
2023-01-08T23:46:44.244Z,34.83
2023-01-08T23:49:11.604Z,35.00
2023-01-08T23:51:42.151Z,34.17
2023-01-08T23:54:10.225Z,34.03
2023-01-08T23:56:37.858Z,33.83
2023-01-08T23:59:05.255Z,34.23
